sensor_id;sensor_type;location;lat;lon;timestamp;P1;durP1;ratioP1;P2;durP2;ratioP2
10430;SDS011;5262;59.958;17.726;2022-10-16T00:01:51;39.67;;;26.03;;
10430;SDS011;5262;59.958;17.726;2022-10-16T00:04:16;42.03;;;26.10;;
10430;SDS011;5262;59.958;17.726;2022-10-16T00:06:42;35.30;;;24.83;;
10430;SDS011;5262;59.958;17.726;2022-10-16T00:09:08;40.73;;;26.23;;
10430;SDS011;5262;59.958;17.726;2022-10-16T00:11:34;33.90;;;24.00;;
10430;SDS011;5262;59.958;17.726;2022-10-16T00:14:03;34.93;;;24.40;;
10430;SDS011;5262;59.958;17.726;2022-10-16T00:16:31;35.37;;;23.97;;
10430;SDS011;5262;59.958;17.726;2022-10-16T00:18:58;31.87;;;22.60;;
10430;SDS011;5262;59.958;17.726;2022-10-16T00:21:25;35.83;;;24.00;;
10430;SDS011;5262;59.958;17.726;2022-10-16T00:23:54;34.37;;;22.80;;
10430;SDS011;5262;59.958;17.726;2022-10-16T00:26:31;35.97;;;22.63;;
10430;SDS011;5262;59.958;17.726;2022-10-16T00:28:58;37.30;;;23.10;;
10430;SDS011;5262;59.958;17.726;2022-10-16T00:31:23;31.53;;;21.90;;
10430;SDS011;5262;59.958;17.726;2022-10-16T00:33:50;30.43;;;22.27;;
10430;SDS011;5262;59.958;17.726;2022-10-16T00:36:17;35.40;;;22.73;;
10430;SDS011;5262;59.958;17.726;2022-10-16T00:38:44;34.67;;;21.53;;
10430;SDS011;5262;59.958;17.726;2022-10-16T00:41:11;35.60;;;22.43;;
10430;SDS011;5262;59.958;17.726;2022-10-16T00:46:26;30.27;;;21.17;;
10430;SDS011;5262;59.958;17.726;2022-10-16T00:51:48;32.87;;;21.63;;
10430;SDS011;5262;59.958;17.726;2022-10-16T00:54:24;34.30;;;22.47;;
10430;SDS011;5262;59.958;17.726;2022-10-16T00:56:52;29.30;;;22.17;;
10430;SDS011;5262;59.958;17.726;2022-10-16T00:59:20;35.87;;;22.77;;
10430;SDS011;5262;59.958;17.726;2022-10-16T01:01:50;33.17;;;22.13;;
10430;SDS011;5262;59.958;17.726;2022-10-16T01:04:16;29.70;;;21.87;;
10430;SDS011;5262;59.958;17.726;2022-10-16T01:09:43;31.17;;;21.67;;
10430;SDS011;5262;59.958;17.726;2022-10-16T01:12:16;31.80;;;20.07;;
10430;SDS011;5262;59.958;17.726;2022-10-16T01:15:26;25.70;;;19.47;;
10430;SDS011;5262;59.958;17.726;2022-10-16T01:20:33;26.60;;;17.47;;
10430;SDS011;5262;59.958;17.726;2022-10-16T01:28:34;20.37;;;16.23;;
10430;SDS011;5262;59.958;17.726;2022-10-16T01:31:06;25.97;;;17.00;;
10430;SDS011;5262;59.958;17.726;2022-10-16T01:33:38;20.10;;;15.53;;
10430;SDS011;5262;59.958;17.726;2022-10-16T01:36:12;20.17;;;16.63;;
10430;SDS011;5262;59.958;17.726;2022-10-16T01:38:46;19.67;;;15.70;;
10430;SDS011;5262;59.958;17.726;2022-10-16T01:41:19;23.13;;;16.67;;
10430;SDS011;5262;59.958;17.726;2022-10-16T01:43:52;23.90;;;15.80;;
10430;SDS011;5262;59.958;17.726;2022-10-16T01:46:24;22.97;;;16.00;;
10430;SDS011;5262;59.958;17.726;2022-10-16T01:48:51;17.60;;;14.27;;
10430;SDS011;5262;59.958;17.726;2022-10-16T01:51:17;23.43;;;15.70;;
10430;SDS011;5262;59.958;17.726;2022-10-16T01:53:47;22.30;;;15.10;;
10430;SDS011;5262;59.958;17.726;2022-10-16T01:56:17;21.13;;;15.80;;
10430;SDS011;5262;59.958;17.726;2022-10-16T01:58:47;20.47;;;15.47;;
10430;SDS011;5262;59.958;17.726;2022-10-16T02:01:18;19.77;;;15.13;;
10430;SDS011;5262;59.958;17.726;2022-10-16T02:03:46;20.73;;;14.43;;
10430;SDS011;5262;59.958;17.726;2022-10-16T02:06:17;19.73;;;14.43;;
10430;SDS011;5262;59.958;17.726;2022-10-16T02:08:42;15.83;;;13.73;;
10430;SDS011;5262;59.958;17.726;2022-10-16T02:11:09;18.63;;;14.93;;
10430;SDS011;5262;59.958;17.726;2022-10-16T02:13:37;17.50;;;14.23;;
10430;SDS011;5262;59.958;17.726;2022-10-16T02:16:10;21.87;;;16.07;;
10430;SDS011;5262;59.958;17.726;2022-10-16T02:18:37;18.93;;;15.10;;
10430;SDS011;5262;59.958;17.726;2022-10-16T02:26:42;17.50;;;13.27;;
10430;SDS011;5262;59.958;17.726;2022-10-16T02:29:17;14.57;;;13.07;;
10430;SDS011;5262;59.958;17.726;2022-10-16T02:31:50;16.17;;;13.37;;
10430;SDS011;5262;59.958;17.726;2022-10-16T02:34:21;17.77;;;13.50;;
10430;SDS011;5262;59.958;17.726;2022-10-16T02:36:48;14.47;;;12.97;;
10430;SDS011;5262;59.958;17.726;2022-10-16T02:39:16;17.17;;;12.87;;
10430;SDS011;5262;59.958;17.726;2022-10-16T02:41:43;15.40;;;12.83;;
10430;SDS011;5262;59.958;17.726;2022-10-16T02:44:09;17.60;;;13.10;;
10430;SDS011;5262;59.958;17.726;2022-10-16T02:46:34;14.70;;;12.67;;
10430;SDS011;5262;59.958;17.726;2022-10-16T02:49:00;13.97;;;12.50;;
10430;SDS011;5262;59.958;17.726;2022-10-16T02:51:25;13.73;;;12.17;;
10430;SDS011;5262;59.958;17.726;2022-10-16T02:53:51;14.43;;;12.40;;
10430;SDS011;5262;59.958;17.726;2022-10-16T02:56:17;14.77;;;11.97;;
10430;SDS011;5262;59.958;17.726;2022-10-16T02:58:43;16.10;;;12.47;;
10430;SDS011;5262;59.958;17.726;2022-10-16T03:01:09;13.77;;;12.20;;
10430;SDS011;5262;59.958;17.726;2022-10-16T03:03:34;14.47;;;11.80;;
10430;SDS011;5262;59.958;17.726;2022-10-16T03:06:00;15.83;;;12.50;;
10430;SDS011;5262;59.958;17.726;2022-10-16T03:08:26;14.53;;;12.20;;
10430;SDS011;5262;59.958;17.726;2022-10-16T03:10:51;15.20;;;12.23;;
10430;SDS011;5262;59.958;17.726;2022-10-16T03:13:17;14.90;;;13.07;;
10430;SDS011;5262;59.958;17.726;2022-10-16T03:15:45;14.80;;;11.73;;
10430;SDS011;5262;59.958;17.726;2022-10-16T03:18:11;16.07;;;12.80;;
10430;SDS011;5262;59.958;17.726;2022-10-16T03:20:36;15.23;;;12.27;;
10430;SDS011;5262;59.958;17.726;2022-10-16T03:23:02;20.90;;;13.57;;
10430;SDS011;5262;59.958;17.726;2022-10-16T03:25:28;17.43;;;13.30;;
10430;SDS011;5262;59.958;17.726;2022-10-16T03:27:53;15.40;;;12.70;;
10430;SDS011;5262;59.958;17.726;2022-10-16T03:30:19;20.87;;;12.93;;
10430;SDS011;5262;59.958;17.726;2022-10-16T03:32:45;17.63;;;13.03;;
10430;SDS011;5262;59.958;17.726;2022-10-16T03:35:12;17.80;;;13.90;;
10430;SDS011;5262;59.958;17.726;2022-10-16T03:37:37;17.87;;;13.83;;
10430;SDS011;5262;59.958;17.726;2022-10-16T03:40:04;19.53;;;13.53;;
10430;SDS011;5262;59.958;17.726;2022-10-16T03:42:30;15.40;;;12.40;;
10430;SDS011;5262;59.958;17.726;2022-10-16T03:44:55;13.73;;;12.17;;
10430;SDS011;5262;59.958;17.726;2022-10-16T03:47:21;14.13;;;12.23;;
10430;SDS011;5262;59.958;17.726;2022-10-16T03:49:48;16.93;;;13.57;;
10430;SDS011;5262;59.958;17.726;2022-10-16T03:52:15;15.67;;;12.67;;
10430;SDS011;5262;59.958;17.726;2022-10-16T03:54:40;15.23;;;12.53;;
10430;SDS011;5262;59.958;17.726;2022-10-16T03:57:06;12.70;;;10.97;;
10430;SDS011;5262;59.958;17.726;2022-10-16T03:59:32;12.00;;;10.23;;
10430;SDS011;5262;59.958;17.726;2022-10-16T04:01:57;14.23;;;10.83;;
10430;SDS011;5262;59.958;17.726;2022-10-16T04:04:23;11.53;;;10.33;;
10430;SDS011;5262;59.958;17.726;2022-10-16T04:06:50;12.57;;;10.13;;
10430;SDS011;5262;59.958;17.726;2022-10-16T04:09:16;11.07;;;9.47;;
10430;SDS011;5262;59.958;17.726;2022-10-16T04:11:42;17.33;;;10.50;;
10430;SDS011;5262;59.958;17.726;2022-10-16T04:14:27;11.43;;;10.13;;
10430;SDS011;5262;59.958;17.726;2022-10-16T04:17:13;11.70;;;9.87;;
10430;SDS011;5262;59.958;17.726;2022-10-16T04:19:58;14.27;;;10.67;;
10430;SDS011;5262;59.958;17.726;2022-10-16T04:22:44;12.63;;;9.73;;
10430;SDS011;5262;59.958;17.726;2022-10-16T04:25:30;11.90;;;10.00;;
10430;SDS011;5262;59.958;17.726;2022-10-16T04:28:16;13.03;;;9.90;;
10430;SDS011;5262;59.958;17.726;2022-10-16T04:31:05;11.73;;;10.07;;
10430;SDS011;5262;59.958;17.726;2022-10-16T04:33:51;11.60;;;10.30;;
10430;SDS011;5262;59.958;17.726;2022-10-16T04:36:37;13.77;;;10.50;;
10430;SDS011;5262;59.958;17.726;2022-10-16T04:39:22;14.00;;;10.70;;
10430;SDS011;5262;59.958;17.726;2022-10-16T04:42:08;13.57;;;11.07;;
10430;SDS011;5262;59.958;17.726;2022-10-16T04:44:33;14.67;;;11.80;;
10430;SDS011;5262;59.958;17.726;2022-10-16T04:47:08;16.37;;;12.60;;
10430;SDS011;5262;59.958;17.726;2022-10-16T04:49:34;13.80;;;11.67;;
10430;SDS011;5262;59.958;17.726;2022-10-16T04:52:00;14.13;;;11.20;;
10430;SDS011;5262;59.958;17.726;2022-10-16T04:54:25;12.37;;;10.80;;
10430;SDS011;5262;59.958;17.726;2022-10-16T04:56:51;15.10;;;11.60;;
10430;SDS011;5262;59.958;17.726;2022-10-16T04:59:18;13.67;;;11.00;;
10430;SDS011;5262;59.958;17.726;2022-10-16T05:01:44;17.37;;;11.27;;
10430;SDS011;5262;59.958;17.726;2022-10-16T05:04:10;14.20;;;11.00;;
10430;SDS011;5262;59.958;17.726;2022-10-16T05:06:36;14.20;;;11.97;;
10430;SDS011;5262;59.958;17.726;2022-10-16T05:09:03;12.57;;;10.10;;
10430;SDS011;5262;59.958;17.726;2022-10-16T05:11:29;14.33;;;11.10;;
10430;SDS011;5262;59.958;17.726;2022-10-16T05:13:55;12.63;;;9.70;;
10430;SDS011;5262;59.958;17.726;2022-10-16T05:16:21;12.73;;;10.60;;
10430;SDS011;5262;59.958;17.726;2022-10-16T05:18:47;11.27;;;9.47;;
10430;SDS011;5262;59.958;17.726;2022-10-16T05:21:12;12.70;;;9.47;;
10430;SDS011;5262;59.958;17.726;2022-10-16T05:23:38;14.93;;;10.10;;
10430;SDS011;5262;59.958;17.726;2022-10-16T05:26:04;10.93;;;8.43;;
10430;SDS011;5262;59.958;17.726;2022-10-16T05:28:29;10.57;;;8.70;;
10430;SDS011;5262;59.958;17.726;2022-10-16T05:30:56;11.10;;;8.57;;
10430;SDS011;5262;59.958;17.726;2022-10-16T05:33:23;9.07;;;8.17;;
10430;SDS011;5262;59.958;17.726;2022-10-16T05:35:50;10.77;;;8.60;;
10430;SDS011;5262;59.958;17.726;2022-10-16T05:38:16;11.60;;;8.90;;
10430;SDS011;5262;59.958;17.726;2022-10-16T05:40:42;8.83;;;7.70;;
10430;SDS011;5262;59.958;17.726;2022-10-16T05:43:08;9.97;;;8.10;;
10430;SDS011;5262;59.958;17.726;2022-10-16T05:45:34;9.17;;;7.73;;
10430;SDS011;5262;59.958;17.726;2022-10-16T05:48:00;9.23;;;8.17;;
10430;SDS011;5262;59.958;17.726;2022-10-16T05:50:26;9.60;;;8.60;;
10430;SDS011;5262;59.958;17.726;2022-10-16T05:52:52;9.40;;;8.43;;
10430;SDS011;5262;59.958;17.726;2022-10-16T05:55:18;8.63;;;7.70;;
10430;SDS011;5262;59.958;17.726;2022-10-16T05:57:43;10.30;;;7.37;;
10430;SDS011;5262;59.958;17.726;2022-10-16T06:00:10;10.60;;;7.20;;
10430;SDS011;5262;59.958;17.726;2022-10-16T06:02:36;7.73;;;6.50;;
10430;SDS011;5262;59.958;17.726;2022-10-16T06:05:01;8.53;;;7.37;;
10430;SDS011;5262;59.958;17.726;2022-10-16T06:07:27;9.40;;;6.83;;
10430;SDS011;5262;59.958;17.726;2022-10-16T06:09:53;7.57;;;6.40;;
10430;SDS011;5262;59.958;17.726;2022-10-16T06:12:19;6.43;;;5.83;;
10430;SDS011;5262;59.958;17.726;2022-10-16T06:14:45;8.77;;;5.80;;
10430;SDS011;5262;59.958;17.726;2022-10-16T06:17:14;10.17;;;6.80;;
10430;SDS011;5262;59.958;17.726;2022-10-16T06:19:40;7.80;;;6.53;;
10430;SDS011;5262;59.958;17.726;2022-10-16T06:22:06;7.10;;;6.40;;
10430;SDS011;5262;59.958;17.726;2022-10-16T06:24:32;9.57;;;6.43;;
10430;SDS011;5262;59.958;17.726;2022-10-16T06:26:57;9.90;;;6.73;;
10430;SDS011;5262;59.958;17.726;2022-10-16T06:29:23;6.90;;;5.90;;
10430;SDS011;5262;59.958;17.726;2022-10-16T06:31:49;7.30;;;5.50;;
10430;SDS011;5262;59.958;17.726;2022-10-16T06:34:14;7.87;;;5.90;;
10430;SDS011;5262;59.958;17.726;2022-10-16T06:36:40;8.13;;;6.03;;
10430;SDS011;5262;59.958;17.726;2022-10-16T06:39:06;5.93;;;5.40;;
10430;SDS011;5262;59.958;17.726;2022-10-16T06:41:35;7.80;;;5.60;;
10430;SDS011;5262;59.958;17.726;2022-10-16T06:44:00;7.53;;;6.07;;
10430;SDS011;5262;59.958;17.726;2022-10-16T06:46:29;6.90;;;6.10;;
10430;SDS011;5262;59.958;17.726;2022-10-16T06:48:55;6.37;;;5.77;;
10430;SDS011;5262;59.958;17.726;2022-10-16T06:51:21;8.90;;;6.33;;
10430;SDS011;5262;59.958;17.726;2022-10-16T06:53:53;9.03;;;6.20;;
10430;SDS011;5262;59.958;17.726;2022-10-16T06:56:22;6.93;;;6.00;;
10430;SDS011;5262;59.958;17.726;2022-10-16T06:58:50;7.03;;;6.10;;
10430;SDS011;5262;59.958;17.726;2022-10-16T07:01:17;7.33;;;5.83;;
10430;SDS011;5262;59.958;17.726;2022-10-16T07:03:44;6.70;;;6.00;;
10430;SDS011;5262;59.958;17.726;2022-10-16T07:06:12;8.47;;;5.60;;
10430;SDS011;5262;59.958;17.726;2022-10-16T07:08:40;9.33;;;5.37;;
10430;SDS011;5262;59.958;17.726;2022-10-16T07:11:08;6.23;;;5.63;;
10430;SDS011;5262;59.958;17.726;2022-10-16T07:13:35;7.10;;;5.60;;
10430;SDS011;5262;59.958;17.726;2022-10-16T07:16:08;7.57;;;5.37;;
10430;SDS011;5262;59.958;17.726;2022-10-16T07:18:36;5.87;;;5.37;;
10430;SDS011;5262;59.958;17.726;2022-10-16T07:21:11;6.97;;;5.63;;
10430;SDS011;5262;59.958;17.726;2022-10-16T07:23:38;6.83;;;5.53;;
10430;SDS011;5262;59.958;17.726;2022-10-16T07:26:05;7.47;;;6.40;;
10430;SDS011;5262;59.958;17.726;2022-10-16T07:28:31;10.23;;;5.27;;
10430;SDS011;5262;59.958;17.726;2022-10-16T07:31:01;7.00;;;5.20;;
10430;SDS011;5262;59.958;17.726;2022-10-16T07:33:38;5.57;;;4.93;;
10430;SDS011;5262;59.958;17.726;2022-10-16T07:36:07;10.13;;;4.83;;
10430;SDS011;5262;59.958;17.726;2022-10-16T07:38:33;5.53;;;4.97;;
10430;SDS011;5262;59.958;17.726;2022-10-16T07:40:59;7.23;;;4.97;;
10430;SDS011;5262;59.958;17.726;2022-10-16T07:43:27;5.97;;;4.80;;
10430;SDS011;5262;59.958;17.726;2022-10-16T07:45:52;5.67;;;4.47;;
10430;SDS011;5262;59.958;17.726;2022-10-16T07:48:19;5.03;;;4.60;;
10430;SDS011;5262;59.958;17.726;2022-10-16T07:50:46;6.10;;;4.67;;
10430;SDS011;5262;59.958;17.726;2022-10-16T07:53:12;6.27;;;4.70;;
10430;SDS011;5262;59.958;17.726;2022-10-16T07:55:37;6.17;;;4.37;;
10430;SDS011;5262;59.958;17.726;2022-10-16T07:58:06;4.20;;;3.80;;
10430;SDS011;5262;59.958;17.726;2022-10-16T08:00:32;7.20;;;4.50;;
10430;SDS011;5262;59.958;17.726;2022-10-16T08:02:58;8.37;;;4.50;;
10430;SDS011;5262;59.958;17.726;2022-10-16T08:05:28;4.60;;;4.10;;
10430;SDS011;5262;59.958;17.726;2022-10-16T08:07:56;5.17;;;4.30;;
10430;SDS011;5262;59.958;17.726;2022-10-16T08:10:23;6.47;;;3.83;;
10430;SDS011;5262;59.958;17.726;2022-10-16T08:12:50;6.20;;;4.20;;
10430;SDS011;5262;59.958;17.726;2022-10-16T08:15:16;7.00;;;4.43;;
10430;SDS011;5262;59.958;17.726;2022-10-16T08:17:42;4.33;;;3.93;;
10430;SDS011;5262;59.958;17.726;2022-10-16T08:20:09;7.00;;;6.23;;
10430;SDS011;5262;59.958;17.726;2022-10-16T08:22:35;5.53;;;4.00;;
10430;SDS011;5262;59.958;17.726;2022-10-16T08:25:01;5.50;;;3.67;;
10430;SDS011;5262;59.958;17.726;2022-10-16T08:27:32;5.37;;;3.50;;
10430;SDS011;5262;59.958;17.726;2022-10-16T08:29:58;5.27;;;3.40;;
10430;SDS011;5262;59.958;17.726;2022-10-16T08:32:24;4.07;;;3.17;;
10430;SDS011;5262;59.958;17.726;2022-10-16T08:34:49;7.53;;;3.73;;
10430;SDS011;5262;59.958;17.726;2022-10-16T08:37:15;5.87;;;3.27;;
10430;SDS011;5262;59.958;17.726;2022-10-16T08:39:41;5.17;;;3.27;;
10430;SDS011;5262;59.958;17.726;2022-10-16T08:42:15;5.00;;;3.20;;
10430;SDS011;5262;59.958;17.726;2022-10-16T08:50:26;4.90;;;2.93;;
10430;SDS011;5262;59.958;17.726;2022-10-16T08:52:54;5.80;;;2.90;;
10430;SDS011;5262;59.958;17.726;2022-10-16T08:57:53;5.13;;;2.83;;
10430;SDS011;5262;59.958;17.726;2022-10-16T09:00:19;5.33;;;2.80;;
10430;SDS011;5262;59.958;17.726;2022-10-16T09:02:49;4.20;;;2.30;;
10430;SDS011;5262;59.958;17.726;2022-10-16T09:05:36;4.47;;;2.20;;
10430;SDS011;5262;59.958;17.726;2022-10-16T09:19:03;6.07;;;2.47;;
10430;SDS011;5262;59.958;17.726;2022-10-16T09:21:40;8.03;;;2.57;;
10430;SDS011;5262;59.958;17.726;2022-10-16T09:24:12;6.33;;;2.50;;
10430;SDS011;5262;59.958;17.726;2022-10-16T09:26:40;6.07;;;3.20;;
10430;SDS011;5262;59.958;17.726;2022-10-16T09:29:09;5.40;;;2.50;;
10430;SDS011;5262;59.958;17.726;2022-10-16T09:31:40;5.00;;;2.27;;
10430;SDS011;5262;59.958;17.726;2022-10-16T09:34:08;5.63;;;2.30;;
10430;SDS011;5262;59.958;17.726;2022-10-16T09:36:48;4.67;;;2.03;;
10430;SDS011;5262;59.958;17.726;2022-10-16T09:39:14;5.83;;;2.00;;
10430;SDS011;5262;59.958;17.726;2022-10-16T09:41:41;5.10;;;2.23;;
10430;SDS011;5262;59.958;17.726;2022-10-16T09:44:25;7.00;;;2.50;;
10430;SDS011;5262;59.958;17.726;2022-10-16T09:49:28;8.00;;;2.33;;
10430;SDS011;5262;59.958;17.726;2022-10-16T09:52:04;4.90;;;2.27;;
10430;SDS011;5262;59.958;17.726;2022-10-16T09:54:31;5.37;;;2.17;;
10430;SDS011;5262;59.958;17.726;2022-10-16T09:57:06;5.17;;;2.20;;
10430;SDS011;5262;59.958;17.726;2022-10-16T09:59:45;7.20;;;2.20;;
10430;SDS011;5262;59.958;17.726;2022-10-16T10:02:12;7.63;;;1.93;;
10430;SDS011;5262;59.958;17.726;2022-10-16T10:04:42;6.10;;;1.73;;
10430;SDS011;5262;59.958;17.726;2022-10-16T10:07:18;8.77;;;1.70;;
10430;SDS011;5262;59.958;17.726;2022-10-16T10:09:51;7.70;;;2.17;;
10430;SDS011;5262;59.958;17.726;2022-10-16T10:12:22;7.30;;;1.63;;
10430;SDS011;5262;59.958;17.726;2022-10-16T10:14:50;5.97;;;1.97;;
10430;SDS011;5262;59.958;17.726;2022-10-16T10:17:22;5.13;;;1.80;;
10430;SDS011;5262;59.958;17.726;2022-10-16T10:33:12;3.95;;;1.65;;
10430;SDS011;5262;59.958;17.726;2022-10-16T10:41:24;3.40;;;1.50;;
10430;SDS011;5262;59.958;17.726;2022-10-16T10:44:11;4.47;;;1.88;;
10430;SDS011;5262;59.958;17.726;2022-10-16T10:46:50;4.05;;;1.50;;
10430;SDS011;5262;59.958;17.726;2022-10-16T10:52:13;6.63;;;2.13;;
10430;SDS011;5262;59.958;17.726;2022-10-16T10:55:17;5.05;;;1.33;;
10430;SDS011;5262;59.958;17.726;2022-10-16T10:58:10;5.88;;;1.40;;
10430;SDS011;5262;59.958;17.726;2022-10-16T11:01:09;5.38;;;1.65;;
10430;SDS011;5262;59.958;17.726;2022-10-16T11:09:16;4.40;;;1.50;;
10430;SDS011;5262;59.958;17.726;2022-10-16T11:17:04;3.22;;;1.48;;
10430;SDS011;5262;59.958;17.726;2022-10-16T11:19:42;7.35;;;1.55;;
10430;SDS011;5262;59.958;17.726;2022-10-16T11:27:57;4.03;;;1.38;;
10430;SDS011;5262;59.958;17.726;2022-10-16T11:33:21;4.63;;;1.77;;
10430;SDS011;5262;59.958;17.726;2022-10-16T11:36:03;5.77;;;1.43;;
10430;SDS011;5262;59.958;17.726;2022-10-16T11:38:45;3.55;;;1.48;;
10430;SDS011;5262;59.958;17.726;2022-10-16T11:41:42;4.03;;;1.73;;
10430;SDS011;5262;59.958;17.726;2022-10-16T11:49:56;5.43;;;1.50;;
10430;SDS011;5262;59.958;17.726;2022-10-16T11:57:50;5.43;;;1.90;;
10430;SDS011;5262;59.958;17.726;2022-10-16T12:00:26;4.27;;;1.43;;
10430;SDS011;5262;59.958;17.726;2022-10-16T12:03:10;8.53;;;2.03;;
10430;SDS011;5262;59.958;17.726;2022-10-16T12:05:58;6.40;;;1.60;;
10430;SDS011;5262;59.958;17.726;2022-10-16T12:08:38;4.93;;;2.00;;
10430;SDS011;5262;59.958;17.726;2022-10-16T12:11:19;7.57;;;2.33;;
10430;SDS011;5262;59.958;17.726;2022-10-16T12:13:45;6.47;;;1.73;;
10430;SDS011;5262;59.958;17.726;2022-10-16T12:18:39;5.33;;;2.20;;
10430;SDS011;5262;59.958;17.726;2022-10-16T12:21:06;7.63;;;2.00;;
10430;SDS011;5262;59.958;17.726;2022-10-16T12:23:33;6.83;;;1.83;;
10430;SDS011;5262;59.958;17.726;2022-10-16T12:26:03;5.17;;;1.50;;
10430;SDS011;5262;59.958;17.726;2022-10-16T12:28:31;7.97;;;1.50;;
10430;SDS011;5262;59.958;17.726;2022-10-16T12:33:28;8.63;;;2.07;;
10430;SDS011;5262;59.958;17.726;2022-10-16T12:36:31;8.07;;;1.83;;
10430;SDS011;5262;59.958;17.726;2022-10-16T12:38:58;9.80;;;2.27;;
10430;SDS011;5262;59.958;17.726;2022-10-16T12:41:26;8.17;;;2.10;;
10430;SDS011;5262;59.958;17.726;2022-10-16T12:43:59;7.83;;;1.77;;
10430;SDS011;5262;59.958;17.726;2022-10-16T12:54:03;5.20;;;1.87;;
10430;SDS011;5262;59.958;17.726;2022-10-16T12:56:57;8.13;;;1.80;;
10430;SDS011;5262;59.958;17.726;2022-10-16T12:59:50;7.87;;;2.00;;
10430;SDS011;5262;59.958;17.726;2022-10-16T13:10:40;8.30;;;2.07;;
10430;SDS011;5262;59.958;17.726;2022-10-16T13:13:22;7.60;;;2.57;;
10430;SDS011;5262;59.958;17.726;2022-10-16T13:19:36;10.80;;;3.03;;
10430;SDS011;5262;59.958;17.726;2022-10-16T13:30:08;9.13;;;2.70;;
10430;SDS011;5262;59.958;17.726;2022-10-16T13:32:40;7.83;;;2.80;;
10430;SDS011;5262;59.958;17.726;2022-10-16T13:38:14;8.10;;;2.93;;
10430;SDS011;5262;59.958;17.726;2022-10-16T13:40:48;5.77;;;3.10;;
10430;SDS011;5262;59.958;17.726;2022-10-16T13:43:13;5.70;;;2.93;;
10430;SDS011;5262;59.958;17.726;2022-10-16T13:45:40;10.87;;;2.60;;
10430;SDS011;5262;59.958;17.726;2022-10-16T13:48:06;10.53;;;3.77;;
10430;SDS011;5262;59.958;17.726;2022-10-16T13:50:37;10.57;;;3.03;;
10430;SDS011;5262;59.958;17.726;2022-10-16T13:53:06;11.90;;;3.13;;
10430;SDS011;5262;59.958;17.726;2022-10-16T13:55:37;10.07;;;3.20;;
10430;SDS011;5262;59.958;17.726;2022-10-16T13:58:13;4.87;;;2.60;;
10430;SDS011;5262;59.958;17.726;2022-10-16T14:00:40;6.13;;;3.00;;
10430;SDS011;5262;59.958;17.726;2022-10-16T14:03:18;5.40;;;2.90;;
10430;SDS011;5262;59.958;17.726;2022-10-16T14:05:52;7.00;;;3.93;;
10430;SDS011;5262;59.958;17.726;2022-10-16T14:08:20;6.07;;;3.37;;
10430;SDS011;5262;59.958;17.726;2022-10-16T14:10:48;8.07;;;2.47;;
10430;SDS011;5262;59.958;17.726;2022-10-16T14:13:20;7.50;;;2.70;;
10430;SDS011;5262;59.958;17.726;2022-10-16T14:15:54;9.67;;;3.13;;
10430;SDS011;5262;59.958;17.726;2022-10-16T14:18:23;9.03;;;3.03;;
10430;SDS011;5262;59.958;17.726;2022-10-16T14:20:51;6.77;;;2.60;;
10430;SDS011;5262;59.958;17.726;2022-10-16T14:25:43;6.87;;;2.80;;
10430;SDS011;5262;59.958;17.726;2022-10-16T14:28:21;7.67;;;2.73;;
10430;SDS011;5262;59.958;17.726;2022-10-16T14:30:55;8.13;;;3.07;;
10430;SDS011;5262;59.958;17.726;2022-10-16T14:38:35;5.27;;;2.60;;
10430;SDS011;5262;59.958;17.726;2022-10-16T14:41:01;5.47;;;2.90;;
10430;SDS011;5262;59.958;17.726;2022-10-16T14:46:16;7.57;;;3.30;;
10430;SDS011;5262;59.958;17.726;2022-10-16T14:48:48;6.90;;;2.70;;
10430;SDS011;5262;59.958;17.726;2022-10-16T14:51:16;5.90;;;2.93;;
10430;SDS011;5262;59.958;17.726;2022-10-16T14:53:43;9.03;;;3.90;;
10430;SDS011;5262;59.958;17.726;2022-10-16T14:56:45;6.83;;;3.37;;
10430;SDS011;5262;59.958;17.726;2022-10-16T14:59:18;4.20;;;2.93;;
10430;SDS011;5262;59.958;17.726;2022-10-16T15:01:50;6.70;;;2.70;;
10430;SDS011;5262;59.958;17.726;2022-10-16T15:04:17;8.03;;;2.40;;
10430;SDS011;5262;59.958;17.726;2022-10-16T15:06:43;5.97;;;2.47;;
10430;SDS011;5262;59.958;17.726;2022-10-16T15:09:09;4.40;;;2.40;;
10430;SDS011;5262;59.958;17.726;2022-10-16T15:11:35;10.07;;;6.33;;
10430;SDS011;5262;59.958;17.726;2022-10-16T15:14:01;7.43;;;2.97;;
10430;SDS011;5262;59.958;17.726;2022-10-16T15:16:28;4.03;;;1.97;;
10430;SDS011;5262;59.958;17.726;2022-10-16T15:18:54;4.57;;;2.07;;
10430;SDS011;5262;59.958;17.726;2022-10-16T15:21:30;2.83;;;2.00;;
10430;SDS011;5262;59.958;17.726;2022-10-16T15:23:58;3.90;;;2.40;;
10430;SDS011;5262;59.958;17.726;2022-10-16T15:26:25;4.40;;;2.03;;
10430;SDS011;5262;59.958;17.726;2022-10-16T15:28:52;6.20;;;3.60;;
10430;SDS011;5262;59.958;17.726;2022-10-16T15:31:18;11.17;;;4.60;;
10430;SDS011;5262;59.958;17.726;2022-10-16T15:33:44;5.80;;;2.83;;
10430;SDS011;5262;59.958;17.726;2022-10-16T15:36:12;4.97;;;2.20;;
10430;SDS011;5262;59.958;17.726;2022-10-16T15:38:38;5.90;;;4.30;;
10430;SDS011;5262;59.958;17.726;2022-10-16T15:41:04;9.23;;;4.93;;
10430;SDS011;5262;59.958;17.726;2022-10-16T15:43:29;11.50;;;6.30;;
10430;SDS011;5262;59.958;17.726;2022-10-16T15:46:02;6.83;;;4.60;;
10430;SDS011;5262;59.958;17.726;2022-10-16T15:48:31;3.40;;;1.70;;
10430;SDS011;5262;59.958;17.726;2022-10-16T15:50:57;4.97;;;2.00;;
10430;SDS011;5262;59.958;17.726;2022-10-16T15:53:23;5.23;;;3.03;;
10430;SDS011;5262;59.958;17.726;2022-10-16T15:55:49;15.50;;;8.93;;
10430;SDS011;5262;59.958;17.726;2022-10-16T15:58:14;6.80;;;3.07;;
10430;SDS011;5262;59.958;17.726;2022-10-16T16:00:40;9.20;;;5.00;;
10430;SDS011;5262;59.958;17.726;2022-10-16T16:03:06;9.00;;;5.53;;
10430;SDS011;5262;59.958;17.726;2022-10-16T16:05:31;4.23;;;2.27;;
10430;SDS011;5262;59.958;17.726;2022-10-16T16:07:58;2.87;;;1.03;;
10430;SDS011;5262;59.958;17.726;2022-10-16T16:10:24;3.47;;;1.30;;
10430;SDS011;5262;59.958;17.726;2022-10-16T16:12:50;4.17;;;1.20;;
10430;SDS011;5262;59.958;17.726;2022-10-16T16:15:18;4.53;;;1.33;;
10430;SDS011;5262;59.958;17.726;2022-10-16T16:17:45;2.33;;;1.27;;
10430;SDS011;5262;59.958;17.726;2022-10-16T16:20:11;3.73;;;0.93;;
10430;SDS011;5262;59.958;17.726;2022-10-16T16:22:37;1.77;;;1.10;;
10430;SDS011;5262;59.958;17.726;2022-10-16T16:25:03;2.40;;;1.43;;
10430;SDS011;5262;59.958;17.726;2022-10-16T16:27:28;2.20;;;0.87;;
10430;SDS011;5262;59.958;17.726;2022-10-16T16:29:58;4.83;;;1.10;;
10430;SDS011;5262;59.958;17.726;2022-10-16T16:32:23;3.87;;;1.10;;
10430;SDS011;5262;59.958;17.726;2022-10-16T16:34:49;4.43;;;1.30;;
10430;SDS011;5262;59.958;17.726;2022-10-16T16:37:15;3.63;;;1.17;;
10430;SDS011;5262;59.958;17.726;2022-10-16T16:39:41;2.67;;;0.80;;
10430;SDS011;5262;59.958;17.726;2022-10-16T16:42:07;5.07;;;0.87;;
10430;SDS011;5262;59.958;17.726;2022-10-16T16:44:33;4.03;;;1.00;;
10430;SDS011;5262;59.958;17.726;2022-10-16T16:47:01;3.03;;;1.10;;
10430;SDS011;5262;59.958;17.726;2022-10-16T16:49:28;4.40;;;1.20;;
10430;SDS011;5262;59.958;17.726;2022-10-16T16:51:53;3.17;;;1.13;;
10430;SDS011;5262;59.958;17.726;2022-10-16T16:54:19;3.70;;;1.00;;
10430;SDS011;5262;59.958;17.726;2022-10-16T16:56:45;2.93;;;1.20;;
10430;SDS011;5262;59.958;17.726;2022-10-16T16:59:15;4.83;;;1.30;;
10430;SDS011;5262;59.958;17.726;2022-10-16T17:01:44;3.20;;;0.90;;
10430;SDS011;5262;59.958;17.726;2022-10-16T17:04:10;4.30;;;0.83;;
10430;SDS011;5262;59.958;17.726;2022-10-16T17:06:37;3.63;;;1.10;;
10430;SDS011;5262;59.958;17.726;2022-10-16T17:09:03;3.03;;;0.97;;
10430;SDS011;5262;59.958;17.726;2022-10-16T17:11:30;1.83;;;0.70;;
10430;SDS011;5262;59.958;17.726;2022-10-16T17:13:56;2.27;;;1.00;;
10430;SDS011;5262;59.958;17.726;2022-10-16T17:16:24;4.83;;;1.00;;